createdAt,value
2018-11-04T00:02:00.203Z,20.00
2018-11-04T00:04:28.659Z,20.85
2018-11-04T00:06:56.888Z,19.90
2018-11-04T00:09:25.145Z,18.60
2018-11-04T00:11:53.395Z,20.30
2018-11-04T00:14:21.700Z,20.57
2018-11-04T00:16:50.298Z,20.27
2018-11-04T00:19:18.866Z,19.48
2018-11-04T00:21:47.154Z,20.00
2018-11-04T00:24:15.701Z,19.07
2018-11-04T00:26:44.021Z,19.75
2018-11-04T00:29:12.357Z,21.10
2018-11-04T00:31:40.645Z,20.30
2018-11-04T00:34:09.143Z,19.82
2018-11-04T00:36:37.452Z,18.73
2018-11-04T00:39:07.667Z,19.25
2018-11-04T00:41:36.026Z,20.02
2018-11-04T00:44:04.291Z,19.23
2018-11-04T00:46:32.747Z,20.95
2018-11-04T00:49:00.996Z,19.92
2018-11-04T00:51:29.715Z,19.32
2018-11-04T00:53:57.977Z,19.40
2018-11-04T00:56:26.290Z,19.23
2018-11-04T00:58:54.499Z,19.67
2018-11-04T01:01:22.765Z,20.73
2018-11-04T01:03:50.990Z,19.17
2018-11-04T01:06:19.202Z,21.20
2018-11-04T01:08:47.526Z,19.20
2018-11-04T01:11:15.711Z,20.23
2018-11-04T01:13:44.036Z,19.03
2018-11-04T01:16:12.268Z,19.80
2018-11-04T01:18:40.686Z,20.32
2018-11-04T01:21:09.131Z,21.68
2018-11-04T01:23:37.354Z,19.37
2018-11-04T01:26:05.607Z,20.62
2018-11-04T01:28:33.793Z,20.32
2018-11-04T01:31:02.249Z,19.50
2018-11-04T01:33:30.578Z,21.45
2018-11-04T01:35:58.803Z,20.32
2018-11-04T01:38:26.989Z,20.07
2018-11-04T01:40:55.222Z,21.25
2018-11-04T01:43:23.458Z,19.98
2018-11-04T01:45:51.834Z,21.60
2018-11-04T01:48:20.068Z,20.60
2018-11-04T01:50:48.495Z,19.98
2018-11-04T01:53:16.717Z,21.67
2018-11-04T01:55:44.930Z,21.42
2018-11-04T01:58:13.174Z,21.82
2018-11-04T02:00:41.387Z,22.10
2018-11-04T02:03:09.613Z,23.07
2018-11-04T02:05:37.982Z,21.80
2018-11-04T02:08:06.883Z,22.40
2018-11-04T02:10:35.121Z,23.20
2018-11-04T02:13:03.557Z,22.95
2018-11-04T02:15:31.757Z,22.40
2018-11-04T02:17:59.991Z,24.10
2018-11-04T02:20:28.433Z,23.02
2018-11-04T02:22:56.671Z,23.18
2018-11-04T02:25:24.904Z,24.23
2018-11-04T02:27:53.112Z,23.47
2018-11-04T02:30:21.427Z,22.55
2018-11-04T02:32:49.810Z,21.73
2018-11-04T02:35:18.088Z,23.77
2018-11-04T02:37:46.338Z,24.10
2018-11-04T02:40:14.579Z,22.67
2018-11-04T02:42:42.843Z,22.97
2018-11-04T02:45:11.543Z,24.50
2018-11-04T02:47:40.000Z,23.40
2018-11-04T02:50:09.183Z,25.70
2018-11-04T02:52:37.441Z,23.13
2018-11-04T02:55:06.389Z,24.52
2018-11-04T02:57:34.718Z,22.30
2018-11-04T03:00:03.035Z,22.25
2018-11-04T03:02:31.238Z,23.40
2018-11-04T03:04:59.467Z,24.37
2018-11-04T03:07:27.702Z,22.25
2018-11-04T03:09:55.914Z,23.10
2018-11-04T03:12:24.147Z,23.05
2018-11-04T03:14:52.648Z,22.07
2018-11-04T03:17:20.866Z,22.40
2018-11-04T03:19:49.453Z,22.52
2018-11-04T03:22:17.949Z,22.85
2018-11-04T03:24:46.203Z,22.25
2018-11-04T03:27:14.393Z,24.20
2018-11-04T03:29:42.630Z,22.35
2018-11-04T03:32:11.172Z,23.12
2018-11-04T03:34:39.400Z,24.30
2018-11-04T03:37:07.845Z,24.60
2018-11-04T03:39:36.067Z,24.72
2018-11-04T03:42:04.299Z,24.85
2018-11-04T03:44:32.570Z,23.20
2018-11-04T03:47:00.898Z,24.50
2018-11-04T03:49:29.186Z,23.18
2018-11-04T03:51:57.528Z,22.65
2018-11-04T03:54:25.730Z,23.60
2018-11-04T03:56:53.990Z,23.90
2018-11-04T03:59:22.237Z,23.50
2018-11-04T04:01:50.482Z,22.85
2018-11-04T04:04:18.680Z,25.27
2018-11-04T04:06:46.871Z,25.20
2018-11-04T04:09:15.078Z,23.92
2018-11-04T04:11:43.238Z,23.83
2018-11-04T04:14:11.462Z,24.40
2018-11-04T04:16:39.905Z,24.13
2018-11-04T04:19:10.479Z,24.50
2018-11-04T04:21:38.655Z,24.85
2018-11-04T04:24:07.357Z,23.05
2018-11-04T04:26:35.624Z,23.65
2018-11-04T04:29:04.243Z,24.02
2018-11-04T04:31:32.949Z,23.95
2018-11-04T04:34:01.386Z,23.27
2018-11-04T04:36:29.569Z,23.77
2018-11-04T04:38:57.983Z,23.25
2018-11-04T04:41:26.213Z,23.38
2018-11-04T04:43:54.485Z,22.52
2018-11-04T04:46:22.832Z,22.77
2018-11-04T04:48:51.224Z,22.67
2018-11-04T04:51:19.447Z,23.62
2018-11-04T04:53:48.164Z,26.73
2018-11-04T04:56:16.415Z,24.12
2018-11-04T04:58:44.609Z,24.20
2018-11-04T05:01:12.790Z,25.43
2018-11-04T05:03:40.973Z,25.02
2018-11-04T05:06:09.425Z,25.30
2018-11-04T05:08:37.621Z,24.98
2018-11-04T05:11:05.850Z,25.50
2018-11-04T05:13:34.038Z,26.07
2018-11-04T05:16:02.483Z,24.92
2018-11-04T05:18:30.711Z,25.62
2018-11-04T05:20:58.921Z,26.62
2018-11-04T05:23:27.333Z,24.25
2018-11-04T05:25:55.785Z,24.25
2018-11-04T05:28:24.129Z,26.67
2018-11-04T05:30:52.593Z,26.05
2018-11-04T05:33:20.990Z,26.35
2018-11-04T05:35:49.251Z,26.73
2018-11-04T05:38:17.670Z,24.52
2018-11-04T05:40:46.410Z,25.65
2018-11-04T05:43:14.597Z,26.55
2018-11-04T05:45:43.281Z,25.82
2018-11-04T05:48:11.591Z,26.85
2018-11-04T05:50:39.886Z,26.50
2018-11-04T05:53:08.106Z,28.15
2018-11-04T05:55:36.306Z,28.05
2018-11-04T05:58:04.925Z,25.50
2018-11-04T06:00:33.127Z,26.27
2018-11-04T06:03:01.303Z,27.02
2018-11-04T06:05:29.793Z,25.70
2018-11-04T06:07:57.957Z,26.63
2018-11-04T06:10:26.362Z,26.70
2018-11-04T06:12:54.556Z,27.48
2018-11-04T06:15:22.753Z,25.60
2018-11-04T06:17:51.162Z,25.75
2018-11-04T06:20:19.371Z,25.37
2018-11-04T06:22:47.567Z,26.60
2018-11-04T06:25:15.803Z,26.50
2018-11-04T06:27:43.974Z,27.30
2018-11-04T06:30:13.722Z,27.97
2018-11-04T06:32:42.681Z,28.03
2018-11-04T06:35:11.125Z,26.40
2018-11-04T06:37:39.337Z,26.90
2018-11-04T06:40:08.115Z,26.27
2018-11-04T06:42:36.309Z,28.38
2018-11-04T06:45:05.381Z,25.57
2018-11-04T06:47:33.903Z,27.07
2018-11-04T06:50:02.494Z,24.85
2018-11-04T06:52:31.097Z,25.80
2018-11-04T06:54:59.283Z,24.23
2018-11-04T06:57:27.488Z,25.45
2018-11-04T06:59:55.685Z,24.30
2018-11-04T07:02:24.077Z,27.22
2018-11-04T07:04:52.527Z,25.25
2018-11-04T07:07:21.143Z,25.77
2018-11-04T07:09:49.541Z,24.93
2018-11-04T07:12:19.302Z,23.65
2018-11-04T07:14:47.482Z,45.38
2018-11-04T07:17:16.134Z,31.33
2018-11-04T07:19:44.585Z,24.87
2018-11-04T07:22:17.478Z,25.25
2018-11-04T07:24:45.653Z,24.47
2018-11-04T07:27:13.854Z,23.87
2018-11-04T07:29:42.103Z,25.88
2018-11-04T07:32:10.516Z,24.00
2018-11-04T07:34:38.932Z,22.00
2018-11-04T07:37:07.373Z,25.15
2018-11-04T07:39:35.610Z,25.03
2018-11-04T07:42:04.386Z,22.22
2018-11-04T07:44:32.597Z,22.13
2018-11-04T07:47:01.085Z,23.07
2018-11-04T07:49:30.392Z,24.57
2018-11-04T07:51:58.657Z,23.00
2018-11-04T07:54:27.119Z,22.10
2018-11-04T07:56:55.673Z,24.00
2018-11-04T07:59:24.040Z,22.82
2018-11-04T08:01:52.338Z,23.38
2018-11-04T08:04:20.905Z,26.13
2018-11-04T08:06:49.027Z,22.20
2018-11-04T08:09:17.463Z,21.50
2018-11-04T08:11:45.703Z,23.20
2018-11-04T08:14:13.894Z,23.50
2018-11-04T08:16:42.078Z,23.80
2018-11-04T08:19:10.255Z,22.90
2018-11-04T08:21:38.497Z,24.07
2018-11-04T08:24:06.758Z,22.07
2018-11-04T08:26:34.969Z,22.00
2018-11-04T08:29:03.218Z,21.68
2018-11-04T08:31:31.546Z,22.20
2018-11-04T08:33:59.769Z,22.15
2018-11-04T08:36:28.052Z,21.02
2018-11-04T08:38:56.412Z,21.73
2018-11-04T08:41:24.914Z,21.33
2018-11-04T08:43:53.189Z,20.63
2018-11-04T08:46:21.427Z,20.20
2018-11-04T08:48:49.646Z,20.75
2018-11-04T08:51:17.850Z,20.62
2018-11-04T08:53:46.046Z,21.60
2018-11-04T08:56:14.227Z,20.62
2018-11-04T08:58:42.458Z,19.80
2018-11-04T09:01:10.650Z,19.43
2018-11-04T09:03:38.869Z,20.67
2018-11-04T09:06:07.052Z,19.63
2018-11-04T09:08:35.794Z,20.50
2018-11-04T09:11:04.227Z,20.80
2018-11-04T09:13:32.425Z,19.07
2018-11-04T09:16:00.675Z,20.83
2018-11-04T09:18:28.887Z,19.37
2018-11-04T09:20:57.085Z,20.55
2018-11-04T09:23:25.290Z,19.13
2018-11-04T09:25:53.453Z,20.60
2018-11-04T09:28:22.392Z,20.63
2018-11-04T09:30:50.602Z,18.37
2018-11-04T09:33:18.981Z,19.43
2018-11-04T09:35:48.256Z,19.50
2018-11-04T09:38:16.266Z,21.27
2018-11-04T09:40:44.508Z,18.80
2018-11-04T09:43:12.725Z,20.17
2018-11-04T09:45:41.187Z,20.00
2018-11-04T09:48:09.430Z,19.53
2018-11-04T09:50:37.622Z,22.03
2018-11-04T09:53:05.844Z,20.00
2018-11-04T09:55:34.029Z,21.00
2018-11-04T09:58:02.253Z,20.00
2018-11-04T10:00:30.433Z,19.90
2018-11-04T10:02:58.692Z,21.70
2018-11-04T10:05:27.098Z,21.50
2018-11-04T10:07:55.307Z,21.63
2018-11-04T10:10:23.521Z,19.20
2018-11-04T10:12:51.964Z,19.57
2018-11-04T10:15:20.198Z,20.57
2018-11-04T10:17:48.409Z,21.80
2018-11-04T10:20:16.970Z,19.30
2018-11-04T10:22:44.793Z,21.20
2018-11-04T10:25:13.596Z,20.37
2018-11-04T10:27:42.478Z,19.57
2018-11-04T10:30:13.934Z,19.27
2018-11-04T10:32:42.285Z,18.57
2018-11-04T10:35:10.985Z,19.10
2018-11-04T10:37:40.204Z,18.87
2018-11-04T10:40:09.594Z,20.95
2018-11-04T10:42:38.023Z,20.00
2018-11-04T10:45:07.377Z,20.83
2018-11-04T10:47:35.829Z,19.40
2018-11-04T10:50:11.059Z,20.67
2018-11-04T10:52:39.282Z,18.80
2018-11-04T10:55:08.602Z,18.80
2018-11-04T10:57:38.986Z,18.73
2018-11-04T11:00:13.222Z,17.73
2018-11-04T11:02:41.664Z,19.92
2018-11-04T11:05:10.041Z,19.98
2018-11-04T11:07:38.885Z,18.87
2018-11-04T11:10:08.372Z,19.33
2018-11-04T11:12:36.561Z,16.77
2018-11-04T11:15:05.824Z,18.30
2018-11-04T11:17:34.305Z,16.67
2018-11-04T11:20:02.521Z,16.90
2018-11-04T11:22:31.028Z,17.23
2018-11-04T11:24:59.170Z,15.80
2018-11-04T11:27:27.364Z,19.00
2018-11-04T11:29:55.632Z,16.90
2018-11-04T11:32:23.817Z,17.97
2018-11-04T11:34:52.210Z,14.97
2018-11-04T11:37:20.488Z,16.83
2018-11-04T11:39:48.606Z,17.20
2018-11-04T11:42:16.837Z,17.98
2018-11-04T11:44:45.074Z,17.43
2018-11-04T11:47:13.250Z,16.40
2018-11-04T11:49:41.873Z,15.80
2018-11-04T11:52:10.043Z,15.60
2018-11-04T11:54:38.414Z,16.20
2018-11-04T11:57:06.609Z,14.15
2018-11-04T11:59:35.912Z,15.00
2018-11-04T12:02:04.121Z,14.27
2018-11-04T12:04:32.314Z,14.00
2018-11-04T12:07:00.519Z,13.83
2018-11-04T12:09:28.718Z,14.57
2018-11-04T12:11:56.931Z,13.37
2018-11-04T12:14:25.130Z,12.90
2018-11-04T12:16:54.538Z,11.73
2018-11-04T12:19:23.071Z,12.63
2018-11-04T12:21:51.332Z,13.40
2018-11-04T12:24:20.075Z,13.73
2018-11-04T12:26:48.390Z,13.13
2018-11-04T12:29:16.679Z,14.20
2018-11-04T12:31:44.863Z,14.77
2018-11-04T12:34:13.439Z,16.33
2018-11-04T12:36:41.839Z,17.90
2018-11-04T12:39:11.065Z,18.30
2018-11-04T12:41:39.433Z,18.55
2018-11-04T12:44:08.720Z,18.17
2018-11-04T12:46:37.267Z,17.47
2018-11-04T12:49:05.963Z,19.17
2018-11-04T12:51:34.377Z,19.00
2018-11-04T12:54:02.641Z,20.10
2018-11-04T12:56:31.089Z,19.80
2018-11-04T12:58:59.271Z,19.30
2018-11-04T13:01:27.466Z,19.63
2018-11-04T13:03:55.854Z,19.07
2018-11-04T13:06:24.161Z,18.57
2018-11-04T13:08:52.449Z,19.40
2018-11-04T13:11:20.677Z,19.17
2018-11-04T13:13:48.850Z,17.90
2018-11-04T13:16:17.095Z,19.23
2018-11-04T13:18:45.305Z,21.62
2018-11-04T13:21:13.974Z,20.35
2018-11-04T13:23:42.141Z,20.10
2018-11-04T13:26:10.438Z,22.33
2018-11-04T13:28:39.003Z,22.27
2018-11-04T13:31:07.255Z,20.40
2018-11-04T13:33:35.437Z,20.50
2018-11-04T13:36:03.776Z,21.25
2018-11-04T13:38:31.946Z,20.70
2018-11-04T13:41:00.251Z,18.73
2018-11-04T13:43:28.708Z,20.73
2018-11-04T13:45:57.298Z,20.47
2018-11-04T13:48:25.507Z,20.43
2018-11-04T13:50:53.715Z,22.67
2018-11-04T13:53:21.914Z,20.87
2018-11-04T13:55:50.106Z,19.70
2018-11-04T13:58:18.282Z,20.80
2018-11-04T14:00:46.587Z,19.70
2018-11-04T14:03:14.826Z,19.27
2018-11-04T14:05:43.304Z,17.70
2018-11-04T14:08:11.567Z,19.90
2018-11-04T14:10:39.817Z,19.02
2018-11-04T14:13:08.357Z,18.60
2018-11-04T14:15:36.672Z,20.12
2018-11-04T14:18:04.988Z,19.30
2018-11-04T14:20:33.392Z,19.90
2018-11-04T14:23:02.122Z,19.70
2018-11-04T14:25:30.818Z,20.97
2018-11-04T14:27:59.246Z,20.97
2018-11-04T14:30:27.453Z,21.00
2018-11-04T14:32:55.693Z,19.43
2018-11-04T14:35:24.260Z,20.70
2018-11-04T14:37:52.476Z,17.85
2018-11-04T14:40:20.681Z,20.57
2018-11-04T14:42:49.103Z,19.35
2018-11-04T14:45:17.354Z,18.70
2018-11-04T14:47:45.573Z,17.77
2018-11-04T14:50:14.843Z,18.00
2018-11-04T14:52:43.924Z,19.25
2018-11-04T14:55:12.130Z,17.62
2018-11-04T14:57:40.663Z,18.48
2018-11-04T15:00:11.308Z,19.98
2018-11-04T15:02:39.658Z,20.55
2018-11-04T15:05:08.342Z,20.90
2018-11-04T15:07:36.626Z,19.17
2018-11-04T15:10:05.682Z,18.98
2018-11-04T15:12:34.137Z,19.23
2018-11-04T15:15:02.367Z,19.57
2018-11-04T15:17:30.637Z,16.83
2018-11-04T15:19:58.838Z,18.47
2018-11-04T15:22:27.779Z,17.73
2018-11-04T15:24:56.056Z,16.25
2018-11-04T15:27:24.386Z,15.53
2018-11-04T15:29:52.599Z,14.68
2018-11-04T15:32:20.823Z,13.90
2018-11-04T15:34:49.336Z,14.73
2018-11-04T15:37:17.614Z,15.30
2018-11-04T15:39:45.813Z,15.38
2018-11-04T15:42:14.057Z,14.23
2018-11-04T15:44:42.262Z,15.50
2018-11-04T15:47:10.651Z,15.37
2018-11-04T15:49:38.886Z,15.23
2018-11-04T15:52:07.323Z,17.10
2018-11-04T15:54:35.518Z,17.98
2018-11-04T15:57:09.042Z,16.95
2018-11-04T15:59:37.240Z,15.68
2018-11-04T16:02:05.430Z,14.97
2018-11-04T16:04:44.544Z,13.55
2018-11-04T16:07:02.785Z,15.63
2018-11-04T16:09:31.172Z,13.90
2018-11-04T16:11:59.370Z,14.38
2018-11-04T16:14:27.628Z,14.05
2018-11-04T16:16:55.827Z,15.28
2018-11-04T16:19:24.492Z,15.00
2018-11-04T16:21:54.042Z,16.37
2018-11-04T16:24:22.539Z,15.20
2018-11-04T16:26:50.798Z,15.00
2018-11-04T16:29:18.999Z,14.58
2018-11-04T16:31:47.249Z,14.87
2018-11-04T16:34:15.412Z,14.73
2018-11-04T16:36:43.646Z,14.30
2018-11-04T16:39:11.865Z,13.68
2018-11-04T16:41:43.778Z,13.65
2018-11-04T16:44:12.505Z,14.28
2018-11-04T16:46:41.094Z,14.47
2018-11-04T16:49:09.663Z,13.00
2018-11-04T16:51:39.466Z,14.45
2018-11-04T16:54:08.018Z,13.90
2018-11-04T16:56:36.883Z,15.60
2018-11-04T16:59:05.594Z,15.28
2018-11-04T17:01:33.806Z,14.28
2018-11-04T17:04:02.576Z,12.78
2018-11-04T17:06:31.150Z,13.30
2018-11-04T17:08:59.308Z,14.53
2018-11-04T17:11:27.617Z,13.32
2018-11-04T17:13:56.838Z,13.95
2018-11-04T17:16:25.246Z,15.67
2018-11-04T17:18:53.541Z,14.63
2018-11-04T17:21:22.428Z,14.03
2018-11-04T17:23:50.699Z,16.48
2018-11-04T17:26:18.869Z,16.50
2018-11-04T17:28:47.069Z,15.65
2018-11-04T17:31:15.277Z,15.15
2018-11-04T17:33:43.502Z,14.50
2018-11-04T17:36:11.972Z,16.02
2018-11-04T17:38:40.171Z,13.75
2018-11-04T17:41:08.394Z,14.17
2018-11-04T17:43:36.620Z,14.70
2018-11-04T17:46:05.506Z,15.07
2018-11-04T17:48:33.695Z,15.68
2018-11-04T17:51:04.042Z,13.85
2018-11-04T17:53:33.252Z,15.70
2018-11-04T17:56:01.490Z,15.60
2018-11-04T17:58:29.723Z,15.93
2018-11-04T18:00:58.250Z,16.60
2018-11-04T18:03:26.443Z,17.17
2018-11-04T18:05:54.871Z,16.52
2018-11-04T18:08:23.173Z,18.23
2018-11-04T18:10:51.388Z,15.47
2018-11-04T18:13:19.586Z,16.37
2018-11-04T18:15:47.870Z,14.87
2018-11-04T18:18:16.175Z,16.95
2018-11-04T18:20:44.368Z,15.32
2018-11-04T18:23:20.610Z,15.80
2018-11-04T18:25:57.952Z,15.93
2018-11-04T18:28:26.856Z,17.07
2018-11-04T18:30:55.211Z,17.95
2018-11-04T18:33:23.398Z,15.48
2018-11-04T18:35:51.621Z,16.48
2018-11-04T18:38:19.821Z,17.45
2018-11-04T18:40:49.465Z,17.73
2018-11-04T18:43:17.670Z,15.98
2018-11-04T18:45:46.573Z,15.93
2018-11-04T18:48:15.103Z,15.45
2018-11-04T18:50:45.106Z,16.00
2018-11-04T18:53:15.502Z,15.63
2018-11-04T18:55:43.860Z,15.32
2018-11-04T18:58:12.874Z,16.37
2018-11-04T19:00:42.524Z,15.05
2018-11-04T19:03:11.960Z,16.53
2018-11-04T19:05:41.809Z,15.72
2018-11-04T19:08:15.677Z,15.28
2018-11-04T19:10:44.855Z,14.60
2018-11-04T19:13:13.899Z,14.70
2018-11-04T19:15:42.319Z,15.75
2018-11-04T19:18:11.615Z,16.25
2018-11-04T19:20:40.055Z,14.50
2018-11-04T19:23:08.442Z,14.95
2018-11-04T19:25:36.913Z,15.83
2018-11-04T19:28:05.935Z,15.40
2018-11-04T19:30:34.656Z,15.15
2018-11-04T19:33:02.994Z,15.08
2018-11-04T19:35:31.398Z,13.48
2018-11-04T19:37:59.781Z,14.47
2018-11-04T19:40:28.341Z,16.02
2018-11-04T19:42:57.449Z,16.85
2018-11-04T19:45:28.810Z,15.20
2018-11-04T19:47:57.273Z,14.50
2018-11-04T19:50:25.639Z,15.13
2018-11-04T19:52:54.952Z,15.38
2018-11-04T19:55:23.466Z,17.15
2018-11-04T19:57:51.863Z,18.85
2018-11-04T20:00:20.410Z,17.62
2018-11-04T20:02:49.078Z,15.45
2018-11-04T20:05:18.631Z,20.55
2018-11-04T20:07:48.513Z,17.95
2018-11-04T20:10:18.492Z,14.47
2018-11-04T20:12:52.131Z,14.80
2018-11-04T20:15:21.024Z,14.78
2018-11-04T20:17:49.796Z,14.85
2018-11-04T20:20:25.760Z,14.15
2018-11-04T20:22:54.270Z,17.45
2018-11-04T20:25:27.812Z,15.80
2018-11-04T20:27:56.527Z,14.85
2018-11-04T20:30:25.321Z,14.45
2018-11-04T20:32:59.203Z,15.72
2018-11-04T20:35:27.622Z,16.90
2018-11-04T20:37:57.540Z,15.78
2018-11-04T20:40:31.676Z,16.03
2018-11-04T20:43:00.272Z,17.90
2018-11-04T20:45:28.955Z,15.70
2018-11-04T20:48:02.810Z,15.65
2018-11-04T20:50:37.949Z,15.95
2018-11-04T20:53:06.382Z,17.00
2018-11-04T20:55:40.513Z,16.35
2018-11-04T20:58:09.256Z,15.72
2018-11-04T21:00:38.058Z,16.60
2018-11-04T21:03:06.475Z,15.00
2018-11-04T21:05:34.992Z,15.43
2018-11-04T21:08:03.573Z,16.55
2018-11-04T21:10:34.504Z,15.88
2018-11-04T21:13:08.794Z,16.42
2018-11-04T21:15:38.557Z,15.65
2018-11-04T21:18:07.774Z,18.00
2018-11-04T21:20:37.084Z,19.05
2018-11-04T21:23:06.027Z,19.67
2018-11-04T21:25:35.063Z,19.15
2018-11-04T21:28:06.762Z,17.57
2018-11-04T21:30:36.070Z,17.55
2018-11-04T21:33:05.071Z,16.25
2018-11-04T21:35:33.690Z,15.48
2018-11-04T21:38:02.539Z,14.98
2018-11-04T21:40:30.911Z,15.65
2018-11-04T21:42:59.603Z,17.35
2018-11-04T21:45:28.498Z,16.77
2018-11-04T21:47:57.382Z,16.27
2018-11-04T21:50:31.135Z,17.85
2018-11-04T21:53:00.267Z,16.15
2018-11-04T21:55:28.831Z,17.27
2018-11-04T21:57:57.950Z,14.78
2018-11-04T22:00:26.275Z,16.85
2018-11-04T22:02:54.893Z,18.25
2018-11-04T22:05:23.135Z,18.45
2018-11-04T22:07:51.635Z,18.45
2018-11-04T22:10:20.844Z,17.37
2018-11-04T22:12:49.767Z,18.42
2018-11-04T22:15:18.139Z,18.95
2018-11-04T22:17:46.427Z,19.10
2018-11-04T22:20:15.042Z,17.95
2018-11-04T22:22:43.358Z,17.30
2018-11-04T22:25:12.043Z,16.55
2018-11-04T22:27:40.464Z,18.70
2018-11-04T22:30:09.899Z,18.02
2018-11-04T22:32:38.560Z,16.37
2018-11-04T22:35:07.873Z,16.50
2018-11-04T22:37:36.369Z,16.35
2018-11-04T22:40:05.594Z,16.00
2018-11-04T22:42:34.999Z,16.55
2018-11-04T22:45:03.468Z,15.78
2018-11-04T22:47:32.679Z,16.10
2018-11-04T22:50:01.531Z,16.40
2018-11-04T22:52:29.786Z,16.02
2018-11-04T22:54:58.158Z,16.95
2018-11-04T22:57:26.633Z,18.02
2018-11-04T22:59:55.701Z,16.35
2018-11-04T23:02:24.148Z,18.80
2018-11-04T23:04:57.794Z,17.45
2018-11-04T23:07:26.506Z,18.62
2018-11-04T23:09:54.790Z,16.77
2018-11-04T23:12:23.120Z,16.93
2018-11-04T23:14:51.538Z,16.48
2018-11-04T23:17:19.763Z,16.15
2018-11-04T23:19:48.162Z,16.07
2018-11-04T23:22:16.361Z,16.97
2018-11-04T23:24:44.655Z,16.75
2018-11-04T23:27:13.085Z,16.90
2018-11-04T23:29:41.121Z,17.27
2018-11-04T23:32:09.285Z,16.00
2018-11-04T23:34:37.499Z,16.60
2018-11-04T23:37:06.126Z,16.70
2018-11-04T23:39:34.307Z,16.02
2018-11-04T23:42:02.534Z,17.17
2018-11-04T23:44:31.423Z,16.67
2018-11-04T23:47:00.474Z,15.70
2018-11-04T23:49:38.641Z,16.27
2018-11-04T23:52:06.966Z,14.55
2018-11-04T23:54:35.347Z,16.02
2018-11-04T23:57:03.618Z,17.62
2018-11-04T23:59:31.893Z,17.20
